sensor_id;sensor_type;location;lat;lon;timestamp;temperature;humidity
40676;DHT22;26359;48.750;9.314;2022-09-13T00:00:50;16.30;99.90
40676;DHT22;26359;48.750;9.314;2022-09-13T00:03:16;16.40;99.90
40676;DHT22;26359;48.750;9.314;2022-09-13T00:05:42;16.30;99.90
40676;DHT22;26359;48.750;9.314;2022-09-13T00:08:08;16.20;99.90
40676;DHT22;26359;48.750;9.314;2022-09-13T00:10:35;16.30;99.90
40676;DHT22;26359;48.750;9.314;2022-09-13T00:13:02;16.30;99.90
40676;DHT22;26359;48.750;9.314;2022-09-13T00:15:27;16.30;99.90
40676;DHT22;26359;48.750;9.314;2022-09-13T00:17:53;16.20;99.90
40676;DHT22;26359;48.750;9.314;2022-09-13T00:20:18;16.10;99.90
40676;DHT22;26359;48.750;9.314;2022-09-13T00:22:44;16.10;99.90
40676;DHT22;26359;48.750;9.314;2022-09-13T00:25:11;16.20;99.90
40676;DHT22;26359;48.750;9.314;2022-09-13T00:27:36;16.20;99.90
40676;DHT22;26359;48.750;9.314;2022-09-13T00:30:06;16.20;99.90
40676;DHT22;26359;48.750;9.314;2022-09-13T00:32:33;16.10;99.90
40676;DHT22;26359;48.750;9.314;2022-09-13T00:35:00;16.10;99.90
40676;DHT22;26359;48.750;9.314;2022-09-13T00:37:25;16.00;99.90
40676;DHT22;26359;48.750;9.314;2022-09-13T00:39:52;16.00;99.90
40676;DHT22;26359;48.750;9.314;2022-09-13T00:42:23;16.00;99.90
40676;DHT22;26359;48.750;9.314;2022-09-13T00:44:58;15.90;99.90
40676;DHT22;26359;48.750;9.314;2022-09-13T00:49:57;15.90;99.90
40676;DHT22;26359;48.750;9.314;2022-09-13T00:52:27;16.00;99.90
40676;DHT22;26359;48.750;9.314;2022-09-13T00:55:04;15.90;99.90
40676;DHT22;26359;48.750;9.314;2022-09-13T00:57:31;15.90;99.90
40676;DHT22;26359;48.750;9.314;2022-09-13T01:00:08;15.90;99.90
40676;DHT22;26359;48.750;9.314;2022-09-13T01:02:40;16.00;99.90
40676;DHT22;26359;48.750;9.314;2022-09-13T01:05:07;15.90;99.90
40676;DHT22;26359;48.750;9.314;2022-09-13T01:07:33;15.90;99.90
40676;DHT22;26359;48.750;9.314;2022-09-13T01:09:58;15.80;99.90
40676;DHT22;26359;48.750;9.314;2022-09-13T01:14:58;15.80;99.90
40676;DHT22;26359;48.750;9.314;2022-09-13T01:17:27;15.70;99.90
40676;DHT22;26359;48.750;9.314;2022-09-13T01:19:53;15.70;99.90
40676;DHT22;26359;48.750;9.314;2022-09-13T01:22:38;15.70;99.90
40676;DHT22;26359;48.750;9.314;2022-09-13T01:30:39;15.60;99.90
40676;DHT22;26359;48.750;9.314;2022-09-13T01:36:05;15.50;99.90
40676;DHT22;26359;48.750;9.314;2022-09-13T01:38:57;15.50;99.90
40676;DHT22;26359;48.750;9.314;2022-09-13T01:44:18;15.60;99.90
40676;DHT22;26359;48.750;9.314;2022-09-13T01:47:05;15.60;99.90
40676;DHT22;26359;48.750;9.314;2022-09-13T01:49:46;15.50;99.90
40676;DHT22;26359;48.750;9.314;2022-09-13T01:52:35;15.50;99.90
40676;DHT22;26359;48.750;9.314;2022-09-13T02:00:46;15.50;99.90
40676;DHT22;26359;48.750;9.314;2022-09-13T02:03:16;15.50;99.90
40676;DHT22;26359;48.750;9.314;2022-09-13T02:05:51;15.60;99.90
40676;DHT22;26359;48.750;9.314;2022-09-13T02:10:57;15.60;99.90
40676;DHT22;26359;48.750;9.314;2022-09-13T02:13:27;15.60;99.90
40676;DHT22;26359;48.750;9.314;2022-09-13T02:16:06;15.50;99.90
40676;DHT22;26359;48.750;9.314;2022-09-13T02:18:40;15.50;99.90
40676;DHT22;26359;48.750;9.314;2022-09-13T02:21:16;15.40;99.90
40676;DHT22;26359;48.750;9.314;2022-09-13T02:24:06;15.40;99.90
40676;DHT22;26359;48.750;9.314;2022-09-13T02:26:34;15.40;99.90
40676;DHT22;26359;48.750;9.314;2022-09-13T02:29:06;15.30;99.90
40676;DHT22;26359;48.750;9.314;2022-09-13T02:31:37;15.30;99.90
40676;DHT22;26359;48.750;9.314;2022-09-13T02:34:12;15.30;99.90
40676;DHT22;26359;48.750;9.314;2022-09-13T02:36:40;15.20;99.90
40676;DHT22;26359;48.750;9.314;2022-09-13T02:39:12;15.30;99.90
40676;DHT22;26359;48.750;9.314;2022-09-13T02:41:57;15.20;99.90
40676;DHT22;26359;48.750;9.314;2022-09-13T02:44:39;15.20;99.90
40676;DHT22;26359;48.750;9.314;2022-09-13T02:56:14;15.10;99.90
40676;DHT22;26359;48.750;9.314;2022-09-13T02:59:08;15.10;99.90
40676;DHT22;26359;48.750;9.314;2022-09-13T03:01:38;14.90;99.90
40676;DHT22;26359;48.750;9.314;2022-09-13T03:04:06;14.80;99.90
40676;DHT22;26359;48.750;9.314;2022-09-13T03:06:32;14.70;99.90
40676;DHT22;26359;48.750;9.314;2022-09-13T03:09:00;14.60;99.90
40676;DHT22;26359;48.750;9.314;2022-09-13T03:14:16;14.70;99.90
40676;DHT22;26359;48.750;9.314;2022-09-13T03:16:59;14.70;99.90
40676;DHT22;26359;48.750;9.314;2022-09-13T03:19:52;14.80;99.90
40676;DHT22;26359;48.750;9.314;2022-09-13T03:27:55;14.80;99.90
40676;DHT22;26359;48.750;9.314;2022-09-13T03:30:23;14.80;99.90
40676;DHT22;26359;48.750;9.314;2022-09-13T03:33:01;14.80;99.90
40676;DHT22;26359;48.750;9.314;2022-09-13T03:35:37;14.90;99.90
40676;DHT22;26359;48.750;9.314;2022-09-13T03:40:44;14.80;99.90
40676;DHT22;26359;48.750;9.314;2022-09-13T03:43:23;14.80;99.90
40676;DHT22;26359;48.750;9.314;2022-09-13T03:45:53;14.80;99.90
40676;DHT22;26359;48.750;9.314;2022-09-13T03:48:20;14.80;99.90
40676;DHT22;26359;48.750;9.314;2022-09-13T03:50:47;14.70;99.90
40676;DHT22;26359;48.750;9.314;2022-09-13T03:53:21;14.60;99.90
40676;DHT22;26359;48.750;9.314;2022-09-13T03:55:47;14.50;99.90
40676;DHT22;26359;48.750;9.314;2022-09-13T03:58:16;14.40;99.90
40676;DHT22;26359;48.750;9.314;2022-09-13T04:00:43;14.40;99.90
40676;DHT22;26359;48.750;9.314;2022-09-13T04:03:11;14.30;99.90
40676;DHT22;26359;48.750;9.314;2022-09-13T04:05:37;14.30;99.90
40676;DHT22;26359;48.750;9.314;2022-09-13T04:08:05;14.40;99.90
40676;DHT22;26359;48.750;9.314;2022-09-13T04:10:32;14.40;99.90
40676;DHT22;26359;48.750;9.314;2022-09-13T04:12:58;14.40;99.90
40676;DHT22;26359;48.750;9.314;2022-09-13T04:15:27;14.40;99.90
40676;DHT22;26359;48.750;9.314;2022-09-13T04:17:55;14.40;99.90
40676;DHT22;26359;48.750;9.314;2022-09-13T04:20:20;14.40;99.90
40676;DHT22;26359;48.750;9.314;2022-09-13T04:22:53;14.50;99.90
40676;DHT22;26359;48.750;9.314;2022-09-13T04:25:19;14.40;99.90
40676;DHT22;26359;48.750;9.314;2022-09-13T04:27:45;14.40;99.90
40676;DHT22;26359;48.750;9.314;2022-09-13T04:30:11;14.30;99.90
40676;DHT22;26359;48.750;9.314;2022-09-13T04:32:37;14.20;99.90
40676;DHT22;26359;48.750;9.314;2022-09-13T04:35:02;14.20;99.90
40676;DHT22;26359;48.750;9.314;2022-09-13T04:37:28;14.20;99.90
40676;DHT22;26359;48.750;9.314;2022-09-13T04:39:54;14.20;99.90
40676;DHT22;26359;48.750;9.314;2022-09-13T04:42:19;14.20;99.90
40676;DHT22;26359;48.750;9.314;2022-09-13T04:44:45;14.20;99.90
40676;DHT22;26359;48.750;9.314;2022-09-13T04:47:10;14.20;99.90
40676;DHT22;26359;48.750;9.314;2022-09-13T04:49:36;14.20;99.90
40676;DHT22;26359;48.750;9.314;2022-09-13T04:52:02;14.30;99.90
40676;DHT22;26359;48.750;9.314;2022-09-13T04:54:27;14.30;99.90
40676;DHT22;26359;48.750;9.314;2022-09-13T04:56:55;14.30;99.90
40676;DHT22;26359;48.750;9.314;2022-09-13T04:59:21;14.30;99.90
40676;DHT22;26359;48.750;9.314;2022-09-13T05:01:46;14.30;99.90
40676;DHT22;26359;48.750;9.314;2022-09-13T05:04:12;14.60;99.90
40676;DHT22;26359;48.750;9.314;2022-09-13T05:06:37;14.70;99.90
40676;DHT22;26359;48.750;9.314;2022-09-13T05:09:03;14.60;99.90
40676;DHT22;26359;48.750;9.314;2022-09-13T05:11:29;14.60;99.90
40676;DHT22;26359;48.750;9.314;2022-09-13T05:13:57;14.60;99.90
40676;DHT22;26359;48.750;9.314;2022-09-13T05:16:28;14.60;99.90
40676;DHT22;26359;48.750;9.314;2022-09-13T05:18:54;14.60;99.90
40676;DHT22;26359;48.750;9.314;2022-09-13T05:21:20;14.50;99.90
40676;DHT22;26359;48.750;9.314;2022-09-13T05:23:50;14.50;99.90
40676;DHT22;26359;48.750;9.314;2022-09-13T05:26:17;14.40;99.90
40676;DHT22;26359;48.750;9.314;2022-09-13T05:28:43;14.50;99.90
40676;DHT22;26359;48.750;9.314;2022-09-13T05:31:18;14.50;99.90
40676;DHT22;26359;48.750;9.314;2022-09-13T05:33:44;14.50;99.90
40676;DHT22;26359;48.750;9.314;2022-09-13T05:36:10;14.50;99.90
40676;DHT22;26359;48.750;9.314;2022-09-13T05:38:36;14.40;99.90
40676;DHT22;26359;48.750;9.314;2022-09-13T05:41:03;14.40;99.90
40676;DHT22;26359;48.750;9.314;2022-09-13T05:43:31;14.40;99.90
40676;DHT22;26359;48.750;9.314;2022-09-13T05:46:05;14.40;99.90
40676;DHT22;26359;48.750;9.314;2022-09-13T05:48:34;14.40;99.90
40676;DHT22;26359;48.750;9.314;2022-09-13T05:51:07;14.40;99.90
40676;DHT22;26359;48.750;9.314;2022-09-13T05:53:33;14.40;99.90
40676;DHT22;26359;48.750;9.314;2022-09-13T05:56:00;14.40;99.90
40676;DHT22;26359;48.750;9.314;2022-09-13T05:58:25;14.40;99.90
40676;DHT22;26359;48.750;9.314;2022-09-13T06:00:55;14.40;99.90
40676;DHT22;26359;48.750;9.314;2022-09-13T06:03:24;14.50;99.90
40676;DHT22;26359;48.750;9.314;2022-09-13T06:05:54;14.50;99.90
40676;DHT22;26359;48.750;9.314;2022-09-13T06:08:21;14.40;99.90
40676;DHT22;26359;48.750;9.314;2022-09-13T06:11:00;14.40;99.90
40676;DHT22;26359;48.750;9.314;2022-09-13T06:13:40;14.30;99.90
40676;DHT22;26359;48.750;9.314;2022-09-13T06:16:17;14.40;99.90
40676;DHT22;26359;48.750;9.314;2022-09-13T06:18:49;14.40;99.90
40676;DHT22;26359;48.750;9.314;2022-09-13T06:21:21;14.50;99.90
40676;DHT22;26359;48.750;9.314;2022-09-13T06:23:52;14.60;99.90
40676;DHT22;26359;48.750;9.314;2022-09-13T06:26:25;14.60;99.90
40676;DHT22;26359;48.750;9.314;2022-09-13T06:28:59;14.60;99.90
40676;DHT22;26359;48.750;9.314;2022-09-13T06:31:28;14.70;99.90
40676;DHT22;26359;48.750;9.314;2022-09-13T06:33:59;14.70;99.90
40676;DHT22;26359;48.750;9.314;2022-09-13T06:36:29;14.70;99.90
40676;DHT22;26359;48.750;9.314;2022-09-13T06:38:55;14.70;99.90
40676;DHT22;26359;48.750;9.314;2022-09-13T06:41:23;14.60;99.90
40676;DHT22;26359;48.750;9.314;2022-09-13T06:43:54;14.70;99.90
40676;DHT22;26359;48.750;9.314;2022-09-13T06:46:20;14.70;99.90
40676;DHT22;26359;48.750;9.314;2022-09-13T06:48:46;14.70;99.90
40676;DHT22;26359;48.750;9.314;2022-09-13T06:51:18;14.70;99.90
40676;DHT22;26359;48.750;9.314;2022-09-13T06:53:45;14.80;99.90
40676;DHT22;26359;48.750;9.314;2022-09-13T06:56:14;14.80;99.90
40676;DHT22;26359;48.750;9.314;2022-09-13T06:58:42;14.80;99.90
40676;DHT22;26359;48.750;9.314;2022-09-13T07:03:38;14.70;99.90
40676;DHT22;26359;48.750;9.314;2022-09-13T07:06:08;14.70;99.90
40676;DHT22;26359;48.750;9.314;2022-09-13T07:08:35;14.70;99.90
40676;DHT22;26359;48.750;9.314;2022-09-13T07:11:01;14.70;99.90
40676;DHT22;26359;48.750;9.314;2022-09-13T07:13:26;14.70;99.90
40676;DHT22;26359;48.750;9.314;2022-09-13T07:15:52;14.70;99.90
40676;DHT22;26359;48.750;9.314;2022-09-13T07:18:17;14.70;99.90
40676;DHT22;26359;48.750;9.314;2022-09-13T07:20:42;14.70;99.90
40676;DHT22;26359;48.750;9.314;2022-09-13T07:23:08;14.80;99.90
40676;DHT22;26359;48.750;9.314;2022-09-13T07:25:34;14.90;99.90
40676;DHT22;26359;48.750;9.314;2022-09-13T07:27:59;14.90;99.90
40676;DHT22;26359;48.750;9.314;2022-09-13T07:30:25;14.90;99.90
40676;DHT22;26359;48.750;9.314;2022-09-13T07:32:51;15.00;99.90
40676;DHT22;26359;48.750;9.314;2022-09-13T07:35:16;15.10;99.90
40676;DHT22;26359;48.750;9.314;2022-09-13T07:37:42;15.10;99.90
40676;DHT22;26359;48.750;9.314;2022-09-13T07:40:10;15.10;99.90
40676;DHT22;26359;48.750;9.314;2022-09-13T07:42:35;15.10;99.90
40676;DHT22;26359;48.750;9.314;2022-09-13T07:45:01;15.00;99.90
40676;DHT22;26359;48.750;9.314;2022-09-13T07:47:26;15.10;99.90
40676;DHT22;26359;48.750;9.314;2022-09-13T07:49:52;15.20;99.90
40676;DHT22;26359;48.750;9.314;2022-09-13T07:52:17;15.30;99.90
40676;DHT22;26359;48.750;9.314;2022-09-13T07:54:43;15.40;99.90
40676;DHT22;26359;48.750;9.314;2022-09-13T07:57:09;15.40;99.90
40676;DHT22;26359;48.750;9.314;2022-09-13T07:59:34;15.40;99.90
40676;DHT22;26359;48.750;9.314;2022-09-13T08:02:00;15.40;99.90
40676;DHT22;26359;48.750;9.314;2022-09-13T08:04:25;15.50;99.90
40676;DHT22;26359;48.750;9.314;2022-09-13T08:06:51;15.60;99.90
40676;DHT22;26359;48.750;9.314;2022-09-13T08:09:17;15.70;99.90
40676;DHT22;26359;48.750;9.314;2022-09-13T08:11:48;15.80;99.90
40676;DHT22;26359;48.750;9.314;2022-09-13T08:14:18;15.90;99.90
40676;DHT22;26359;48.750;9.314;2022-09-13T08:16:44;16.10;99.90
40676;DHT22;26359;48.750;9.314;2022-09-13T08:19:17;16.20;99.90
40676;DHT22;26359;48.750;9.314;2022-09-13T08:21:44;16.30;99.90
40676;DHT22;26359;48.750;9.314;2022-09-13T08:24:15;16.50;99.90
40676;DHT22;26359;48.750;9.314;2022-09-13T08:26:41;16.60;99.90
40676;DHT22;26359;48.750;9.314;2022-09-13T08:29:07;16.80;99.90
40676;DHT22;26359;48.750;9.314;2022-09-13T08:31:33;16.90;99.90
40676;DHT22;26359;48.750;9.314;2022-09-13T08:33:59;17.00;99.90
40676;DHT22;26359;48.750;9.314;2022-09-13T08:36:26;17.10;99.90
40676;DHT22;26359;48.750;9.314;2022-09-13T08:38:57;17.20;99.90
40676;DHT22;26359;48.750;9.314;2022-09-13T08:44:33;17.30;99.90
40676;DHT22;26359;48.750;9.314;2022-09-13T08:49:41;17.50;99.90
40676;DHT22;26359;48.750;9.314;2022-09-13T08:54:39;17.80;99.90
40676;DHT22;26359;48.750;9.314;2022-09-13T08:57:24;17.90;99.90
40676;DHT22;26359;48.750;9.314;2022-09-13T09:02:47;18.20;99.90
40676;DHT22;26359;48.750;9.314;2022-09-13T09:05:21;18.40;99.90
40676;DHT22;26359;48.750;9.314;2022-09-13T09:07:52;18.50;99.90
40676;DHT22;26359;48.750;9.314;2022-09-13T09:10:24;18.60;99.90
40676;DHT22;26359;48.750;9.314;2022-09-13T09:13:12;18.70;99.90
40676;DHT22;26359;48.750;9.314;2022-09-13T09:16:06;18.80;99.90
40676;DHT22;26359;48.750;9.314;2022-09-13T09:18:41;18.90;99.90
40676;DHT22;26359;48.750;9.314;2022-09-13T09:21:16;19.00;99.90
40676;DHT22;26359;48.750;9.314;2022-09-13T09:23:54;19.10;99.90
40676;DHT22;26359;48.750;9.314;2022-09-13T09:26:26;19.30;99.90
40676;DHT22;26359;48.750;9.314;2022-09-13T09:31:43;19.50;99.90
40676;DHT22;26359;48.750;9.314;2022-09-13T09:37:18;19.80;99.90
40676;DHT22;26359;48.750;9.314;2022-09-13T09:39:45;19.90;99.90
40676;DHT22;26359;48.750;9.314;2022-09-13T09:42:15;20.00;99.90
40676;DHT22;26359;48.750;9.314;2022-09-13T09:44:45;20.10;99.90
40676;DHT22;26359;48.750;9.314;2022-09-13T09:47:21;20.30;99.90
40676;DHT22;26359;48.750;9.314;2022-09-13T09:50:02;20.40;99.90
40676;DHT22;26359;48.750;9.314;2022-09-13T09:52:58;20.60;99.90
40676;DHT22;26359;48.750;9.314;2022-09-13T09:55:34;20.90;99.90
40676;DHT22;26359;48.750;9.314;2022-09-13T09:58:05;21.10;99.90
40676;DHT22;26359;48.750;9.314;2022-09-13T10:00:37;21.20;99.90
40676;DHT22;26359;48.750;9.314;2022-09-13T10:03:33;21.30;99.90
40676;DHT22;26359;48.750;9.314;2022-09-13T10:06:08;21.50;99.90
40676;DHT22;26359;48.750;9.314;2022-09-13T10:08:37;21.60;99.90
40676;DHT22;26359;48.750;9.314;2022-09-13T10:11:05;21.80;99.90
40676;DHT22;26359;48.750;9.314;2022-09-13T10:13:31;22.00;99.90
40676;DHT22;26359;48.750;9.314;2022-09-13T10:16:05;22.20;99.90
40676;DHT22;26359;48.750;9.314;2022-09-13T10:18:36;22.40;99.90
40676;DHT22;26359;48.750;9.314;2022-09-13T10:23:42;22.80;99.90
40676;DHT22;26359;48.750;9.314;2022-09-13T10:26:12;23.00;99.90
40676;DHT22;26359;48.750;9.314;2022-09-13T10:29:12;23.20;99.90
40676;DHT22;26359;48.750;9.314;2022-09-13T10:31:42;23.60;99.90
40676;DHT22;26359;48.750;9.314;2022-09-13T10:34:12;24.00;99.90
40676;DHT22;26359;48.750;9.314;2022-09-13T10:36:47;24.60;99.90
40676;DHT22;26359;48.750;9.314;2022-09-13T10:39:18;25.00;99.90
40676;DHT22;26359;48.750;9.314;2022-09-13T10:42:00;25.30;99.90
40676;DHT22;26359;48.750;9.314;2022-09-13T10:44:34;25.60;99.90
40676;DHT22;26359;48.750;9.314;2022-09-13T10:47:06;25.90;99.90
40676;DHT22;26359;48.750;9.314;2022-09-13T10:49:43;26.20;99.90
40676;DHT22;26359;48.750;9.314;2022-09-13T10:52:36;26.60;99.90
40676;DHT22;26359;48.750;9.314;2022-09-13T10:57:55;27.00;99.90
40676;DHT22;26359;48.750;9.314;2022-09-13T11:01:02;27.00;99.90
40676;DHT22;26359;48.750;9.314;2022-09-13T11:06:41;27.20;99.90
40676;DHT22;26359;48.750;9.314;2022-09-13T11:09:19;27.30;99.90
40676;DHT22;26359;48.750;9.314;2022-09-13T11:12:23;27.40;99.90
40676;DHT22;26359;48.750;9.314;2022-09-13T11:23:30;28.30;97.70
40676;DHT22;26359;48.750;9.314;2022-09-13T11:29:04;28.30;97.30
40676;DHT22;26359;48.750;9.314;2022-09-13T11:31:42;28.00;99.70
40676;DHT22;26359;48.750;9.314;2022-09-13T11:34:28;27.70;95.80
40676;DHT22;26359;48.750;9.314;2022-09-13T11:40:19;27.20;94.30
40676;DHT22;26359;48.750;9.314;2022-09-13T11:42:57;27.10;96.00
40676;DHT22;26359;48.750;9.314;2022-09-13T11:45:29;27.30;94.80
40676;DHT22;26359;48.750;9.314;2022-09-13T11:56:26;27.50;94.10
40676;DHT22;26359;48.750;9.314;2022-09-13T12:01:57;27.20;94.60
40676;DHT22;26359;48.750;9.314;2022-09-13T12:04:35;27.30;95.50
40676;DHT22;26359;48.750;9.314;2022-09-13T12:07:10;27.50;96.00
40676;DHT22;26359;48.750;9.314;2022-09-13T12:09:52;27.70;92.80
40676;DHT22;26359;48.750;9.314;2022-09-13T12:12:20;27.60;95.10
40676;DHT22;26359;48.750;9.314;2022-09-13T12:15:31;27.80;95.40
40676;DHT22;26359;48.750;9.314;2022-09-13T12:18:15;28.00;95.80
40676;DHT22;26359;48.750;9.314;2022-09-13T12:20:51;28.30;93.00
40676;DHT22;26359;48.750;9.314;2022-09-13T12:23:31;28.50;95.20
40676;DHT22;26359;48.750;9.314;2022-09-13T12:30:13;28.60;93.70
40676;DHT22;26359;48.750;9.314;2022-09-13T12:32:04;28.60;94.10
40676;DHT22;26359;48.750;9.314;2022-09-13T12:39:39;28.10;91.60
40676;DHT22;26359;48.750;9.314;2022-09-13T12:50:17;27.80;86.30
40676;DHT22;26359;48.750;9.314;2022-09-13T12:58:29;28.00;85.60
40676;DHT22;26359;48.750;9.314;2022-09-13T13:01:25;28.20;90.10
40676;DHT22;26359;48.750;9.314;2022-09-13T13:04:07;28.30;85.70
40676;DHT22;26359;48.750;9.314;2022-09-13T13:11:47;28.60;85.30
40676;DHT22;26359;48.750;9.314;2022-09-13T13:14:44;28.50;85.80
40676;DHT22;26359;48.750;9.314;2022-09-13T13:23:37;28.60;81.30
40676;DHT22;26359;48.750;9.314;2022-09-13T13:28:50;28.80;87.40
40676;DHT22;26359;48.750;9.314;2022-09-13T13:31:32;28.70;79.80
40676;DHT22;26359;48.750;9.314;2022-09-13T13:52:36;28.40;75.10
40676;DHT22;26359;48.750;9.314;2022-09-13T13:55:42;28.40;81.40
40676;DHT22;26359;48.750;9.314;2022-09-13T14:00:49;28.50;74.90
40676;DHT22;26359;48.750;9.314;2022-09-13T14:03:31;28.40;74.00
40676;DHT22;26359;48.750;9.314;2022-09-13T14:19:45;27.60;85.30
40676;DHT22;26359;48.750;9.314;2022-09-13T14:22:20;27.50;88.80
40676;DHT22;26359;48.750;9.314;2022-09-13T14:24:47;27.40;86.30
40676;DHT22;26359;48.750;9.314;2022-09-13T14:27:16;27.40;82.20
40676;DHT22;26359;48.750;9.314;2022-09-13T14:29:50;27.40;86.40
40676;DHT22;26359;48.750;9.314;2022-09-13T14:32:23;27.30;82.30
40676;DHT22;26359;48.750;9.314;2022-09-13T14:35:00;27.30;90.80
40676;DHT22;26359;48.750;9.314;2022-09-13T14:37:30;27.20;85.10
40676;DHT22;26359;48.750;9.314;2022-09-13T14:40:01;27.20;84.00
40676;DHT22;26359;48.750;9.314;2022-09-13T14:42:42;27.10;82.70
40676;DHT22;26359;48.750;9.314;2022-09-13T14:47:50;27.00;80.10
40676;DHT22;26359;48.750;9.314;2022-09-13T14:50:23;27.00;86.30
40676;DHT22;26359;48.750;9.314;2022-09-13T14:52:56;27.00;80.00
40676;DHT22;26359;48.750;9.314;2022-09-13T14:55:33;27.00;81.80
40676;DHT22;26359;48.750;9.314;2022-09-13T14:58:03;27.00;88.40
40676;DHT22;26359;48.750;9.314;2022-09-13T15:00:34;27.00;89.50
40676;DHT22;26359;48.750;9.314;2022-09-13T15:03:03;26.90;90.10
40676;DHT22;26359;48.750;9.314;2022-09-13T15:05:38;26.80;90.60
40676;DHT22;26359;48.750;9.314;2022-09-13T15:10:52;26.70;86.40
40676;DHT22;26359;48.750;9.314;2022-09-13T15:13:21;26.70;84.60
40676;DHT22;26359;48.750;9.314;2022-09-13T15:15:46;26.60;84.90
40676;DHT22;26359;48.750;9.314;2022-09-13T15:23:38;26.50;89.40
40676;DHT22;26359;48.750;9.314;2022-09-13T15:26:19;26.50;88.10
40676;DHT22;26359;48.750;9.314;2022-09-13T15:28:56;26.40;90.90
40676;DHT22;26359;48.750;9.314;2022-09-13T15:31:32;26.40;91.70
40676;DHT22;26359;48.750;9.314;2022-09-13T15:36:44;26.30;91.80
40676;DHT22;26359;48.750;9.314;2022-09-13T15:39:17;26.30;91.80
40676;DHT22;26359;48.750;9.314;2022-09-13T15:42:04;26.30;91.70
40676;DHT22;26359;48.750;9.314;2022-09-13T15:44:30;26.20;92.10
40676;DHT22;26359;48.750;9.314;2022-09-13T15:46:59;26.20;92.30
40676;DHT22;26359;48.750;9.314;2022-09-13T15:49:29;26.10;92.40
40676;DHT22;26359;48.750;9.314;2022-09-13T15:51:58;26.10;94.20
40676;DHT22;26359;48.750;9.314;2022-09-13T15:54:30;26.00;94.10
40676;DHT22;26359;48.750;9.314;2022-09-13T15:56:58;25.90;93.70
40676;DHT22;26359;48.750;9.314;2022-09-13T15:59:28;25.90;93.90
40676;DHT22;26359;48.750;9.314;2022-09-13T16:01:56;25.90;92.80
40676;DHT22;26359;48.750;9.314;2022-09-13T16:04:22;25.80;93.20
40676;DHT22;26359;48.750;9.314;2022-09-13T16:06:55;25.80;92.30
40676;DHT22;26359;48.750;9.314;2022-09-13T16:09:23;25.70;93.50
40676;DHT22;26359;48.750;9.314;2022-09-13T16:11:50;25.70;93.60
40676;DHT22;26359;48.750;9.314;2022-09-13T16:14:17;25.60;93.40
40676;DHT22;26359;48.750;9.314;2022-09-13T16:16:49;25.50;94.00
40676;DHT22;26359;48.750;9.314;2022-09-13T16:19:20;25.50;94.10
40676;DHT22;26359;48.750;9.314;2022-09-13T16:21:47;25.40;93.80
40676;DHT22;26359;48.750;9.314;2022-09-13T16:24:13;25.40;93.80
40676;DHT22;26359;48.750;9.314;2022-09-13T16:26:39;25.40;93.80
40676;DHT22;26359;48.750;9.314;2022-09-13T16:29:05;25.30;93.90
40676;DHT22;26359;48.750;9.314;2022-09-13T16:31:31;25.30;94.10
40676;DHT22;26359;48.750;9.314;2022-09-13T16:33:57;25.30;94.20
40676;DHT22;26359;48.750;9.314;2022-09-13T16:36:23;25.20;94.60
40676;DHT22;26359;48.750;9.314;2022-09-13T16:38:48;25.10;94.40
40676;DHT22;26359;48.750;9.314;2022-09-13T16:41:14;25.10;94.60
40676;DHT22;26359;48.750;9.314;2022-09-13T16:43:39;25.00;94.80
40676;DHT22;26359;48.750;9.314;2022-09-13T16:46:07;25.00;95.20
40676;DHT22;26359;48.750;9.314;2022-09-13T16:48:33;25.00;95.50
40676;DHT22;26359;48.750;9.314;2022-09-13T16:51:03;24.90;95.40
40676;DHT22;26359;48.750;9.314;2022-09-13T16:53:33;24.80;95.80
40676;DHT22;26359;48.750;9.314;2022-09-13T16:58:30;24.80;96.80
40676;DHT22;26359;48.750;9.314;2022-09-13T17:00:56;24.70;96.00
40676;DHT22;26359;48.750;9.314;2022-09-13T17:03:22;24.70;96.30
40676;DHT22;26359;48.750;9.314;2022-09-13T17:05:58;24.60;96.60
40676;DHT22;26359;48.750;9.314;2022-09-13T17:08:24;24.60;96.80
40676;DHT22;26359;48.750;9.314;2022-09-13T17:10:50;24.50;96.60
40676;DHT22;26359;48.750;9.314;2022-09-13T17:13:15;24.40;96.70
40676;DHT22;26359;48.750;9.314;2022-09-13T17:15:41;24.40;96.70
40676;DHT22;26359;48.750;9.314;2022-09-13T17:18:07;24.40;97.60
40676;DHT22;26359;48.750;9.314;2022-09-13T17:20:33;24.30;97.40
40676;DHT22;26359;48.750;9.314;2022-09-13T17:22:58;24.30;96.90
40676;DHT22;26359;48.750;9.314;2022-09-13T17:25:25;24.20;97.30
40676;DHT22;26359;48.750;9.314;2022-09-13T17:27:51;24.20;98.00
40676;DHT22;26359;48.750;9.314;2022-09-13T17:30:17;24.10;97.90
40676;DHT22;26359;48.750;9.314;2022-09-13T17:32:42;24.00;98.30
40676;DHT22;26359;48.750;9.314;2022-09-13T17:35:08;24.00;98.90
40676;DHT22;26359;48.750;9.314;2022-09-13T17:37:35;24.00;97.90
40676;DHT22;26359;48.750;9.314;2022-09-13T17:40:01;23.90;98.60
40676;DHT22;26359;48.750;9.314;2022-09-13T17:42:26;23.90;98.90
40676;DHT22;26359;48.750;9.314;2022-09-13T17:44:52;23.90;98.50
40676;DHT22;26359;48.750;9.314;2022-09-13T17:47:17;23.90;99.00
40676;DHT22;26359;48.750;9.314;2022-09-13T17:49:43;23.80;99.20
40676;DHT22;26359;48.750;9.314;2022-09-13T17:52:09;23.80;99.90
40676;DHT22;26359;48.750;9.314;2022-09-13T17:54:35;23.70;99.70
40676;DHT22;26359;48.750;9.314;2022-09-13T17:57:01;23.70;99.50
40676;DHT22;26359;48.750;9.314;2022-09-13T17:59:26;23.60;99.70
40676;DHT22;26359;48.750;9.314;2022-09-13T18:01:53;23.50;99.90
40676;DHT22;26359;48.750;9.314;2022-09-13T18:04:20;23.50;99.50
40676;DHT22;26359;48.750;9.314;2022-09-13T18:06:46;23.50;99.90
40676;DHT22;26359;48.750;9.314;2022-09-13T18:09:14;23.40;99.90
40676;DHT22;26359;48.750;9.314;2022-09-13T18:11:40;23.30;99.90
40676;DHT22;26359;48.750;9.314;2022-09-13T18:14:13;23.20;99.90
40676;DHT22;26359;48.750;9.314;2022-09-13T18:16:40;23.10;99.90
40676;DHT22;26359;48.750;9.314;2022-09-13T18:19:05;23.10;99.90
40676;DHT22;26359;48.750;9.314;2022-09-13T18:21:31;23.10;99.90
40676;DHT22;26359;48.750;9.314;2022-09-13T18:23:58;23.00;99.90
40676;DHT22;26359;48.750;9.314;2022-09-13T18:26:26;23.00;99.90
40676;DHT22;26359;48.750;9.314;2022-09-13T18:28:53;23.00;99.90
40676;DHT22;26359;48.750;9.314;2022-09-13T18:31:21;23.00;99.80
40676;DHT22;26359;48.750;9.314;2022-09-13T18:33:46;23.00;99.10
40676;DHT22;26359;48.750;9.314;2022-09-13T18:36:16;23.00;99.60
40676;DHT22;26359;48.750;9.314;2022-09-13T18:38:47;23.00;99.30
40676;DHT22;26359;48.750;9.314;2022-09-13T18:41:19;23.00;99.10
40676;DHT22;26359;48.750;9.314;2022-09-13T18:43:46;23.00;99.40
40676;DHT22;26359;48.750;9.314;2022-09-13T18:46:16;23.00;99.50
40676;DHT22;26359;48.750;9.314;2022-09-13T18:48:44;22.90;99.50
40676;DHT22;26359;48.750;9.314;2022-09-13T18:51:12;22.90;99.60
40676;DHT22;26359;48.750;9.314;2022-09-13T18:53:39;22.90;99.70
40676;DHT22;26359;48.750;9.314;2022-09-13T18:56:07;22.90;99.90
40676;DHT22;26359;48.750;9.314;2022-09-13T18:58:34;22.80;99.90